Time;durP1;ratioP1;P1;durP2;ratioP2;P2;SDS_P1;SDS_P2;PMS_P1;PMS_P2;Temp;Humidity;BMP_temperature;BMP_pressure;BME280_temperature;BME280_humidity;BME280_pressure;Samples;Min_cycle;Max_cycle;Signal;HPM_P1;HPM_P2
2022/06/07 00:01:21;;;;;;;;;;;;;;;18.18;70.04;100382.74;84924;1319;22602;-71
2022/06/07 00:03:27;;;;;;;;;;;;;;;18.18;69.82;100380.11;84890;1324;24686;-72
2022/06/07 00:05:33;;;;;;;;;;;;;;;18.16;69.98;100383.23;84881;1324;22587;-71
2022/06/07 00:07:40;;;;;;;;;;;;;;;18.14;70.26;100381.95;84903;1324;24198;-71
2022/06/07 00:09:48;;;;;;;;;;;;;;;18.11;70.38;100386.18;84927;1324;22942;-71
2022/06/07 00:11:54;;;;;;;;;;;;;;;18.09;70.43;100390.41;84887;1326;22561;-70
2022/06/07 00:14:00;;;;;;;;;;;;;;;18.08;70.51;100388.19;84801;1327;22573;-71
2022/06/07 00:16:07;;;;;;;;;;;;;;;18.07;70.82;100383.66;84926;1324;22591;-71
2022/06/07 00:18:13;;;;;;;;;;;;;;;18.07;71.11;100382.26;84909;1326;25378;-71
2022/06/07 00:20:20;;;;;;;;;;;;;;;18.03;71.44;100377.71;84899;1320;22567;-71
2022/06/07 00:22:26;;;;;;;;;;;;;;;18.01;71.80;100380.50;84908;1324;22559;-71
2022/06/07 00:24:36;;;;;;;;;;;;;;;17.98;72.04;100377.55;84903;1324;22590;-71
2022/06/07 00:26:42;;;;;;;;;;;;;;;17.96;72.29;100380.55;84892;1323;22592;-71
2022/06/07 00:28:52;;;;;;;;;;;;;;;17.93;72.64;100380.36;84811;1328;22575;-72
2022/06/07 00:30:58;;;;;;;;;;;;;;;17.93;72.78;100378.80;84902;1325;22665;-71
2022/06/07 00:33:04;;;;;;;;;;;;;;;17.93;73.26;100379.85;84916;1322;22572;-71
2022/06/07 00:35:11;;;;;;;;;;;;;;;17.92;73.51;100375.66;84924;1323;23896;-71
2022/06/07 00:37:17;;;;;;;;;;;;;;;17.91;73.64;100371.48;84867;1323;22560;-70
2022/06/07 00:39:23;;;;;;;;;;;;;;;17.92;73.90;100373.91;84863;1328;22587;-71
2022/06/07 00:41:29;;;;;;;;;;;;;;;17.91;74.08;100371.15;84866;1325;22603;-71
2022/06/07 00:43:36;;;;;;;;;;;;;;;17.89;74.33;100371.80;84849;1324;22612;-72
2022/06/07 00:45:44;;;;;;;;;;;;;;;17.89;74.58;100370.11;84866;1324;22609;-72
2022/06/07 00:47:50;;;;;;;;;;;;;;;17.91;74.80;100374.71;84864;1324;22602;-71
2022/06/07 00:49:58;;;;;;;;;;;;;;;17.91;74.99;100371.33;84854;1324;25381;-71
2022/06/07 00:52:05;;;;;;;;;;;;;;;17.93;75.08;100371.92;84865;1322;22562;-71
2022/06/07 00:54:11;;;;;;;;;;;;;;;17.91;75.28;100370.44;84793;1322;22608;-71
2022/06/07 00:56:17;;;;;;;;;;;;;;;17.92;75.56;100374.08;84868;1323;22584;-71
2022/06/07 00:58:27;;;;;;;;;;;;;;;17.93;75.66;100372.79;84879;1324;25429;-72
2022/06/07 01:00:34;;;;;;;;;;;;;;;17.94;75.52;100375.20;84883;1324;22570;-72
2022/06/07 01:02:40;;;;;;;;;;;;;;;17.96;75.56;100372.91;84866;1324;25415;-70
2022/06/07 01:04:46;;;;;;;;;;;;;;;17.97;75.73;100373.02;84867;1324;22553;-71
2022/06/07 01:11:40;;;;;;;;;;;;;;;18.02;76.15;100368.77;84863;1324;22568;-71
2022/06/07 01:13:46;;;;;;;;;;;;;;;18.00;76.15;100371.59;84854;1324;22579;-72
2022/06/07 01:15:52;;;;;;;;;;;;;;;17.98;76.28;100366.80;84897;1324;24414;-70
2022/06/07 01:17:58;;;;;;;;;;;;;;;17.97;76.37;100365.98;84861;1324;22580;-71
2022/06/07 01:20:05;;;;;;;;;;;;;;;17.96;76.39;100365.70;84880;1324;22564;-71
2022/06/07 01:22:11;;;;;;;;;;;;;;;17.94;76.63;100361.80;84872;1324;22866;-71
2022/06/07 01:24:18;;;;;;;;;;;;;;;17.91;76.80;100361.77;84862;1324;22571;-70
2022/06/07 01:26:24;;;;;;;;;;;;;;;17.90;76.65;100358.86;84859;1324;22571;-71
2022/06/07 01:28:30;;;;;;;;;;;;;;;17.91;76.54;100354.95;84860;1326;22565;-71
2022/06/07 01:30:36;;;;;;;;;;;;;;;17.90;76.73;100349.50;84876;1326;22596;-70
2022/06/07 01:32:42;;;;;;;;;;;;;;;17.89;76.91;100349.10;84855;1325;22586;-70
2022/06/07 01:34:48;;;;;;;;;;;;;;;17.86;77.09;100346.66;84778;1327;22636;-72
2022/06/07 01:36:56;;;;;;;;;;;;;;;17.82;77.01;100348.64;84865;1325;22560;-71
2022/06/07 01:43:50;;;;;;;;;;;;;;;17.79;77.64;100333.54;84832;1321;22667;-71
2022/06/07 01:45:59;;;;;;;;;;;;;;;17.76;77.79;100329.11;84877;1326;22557;-71
2022/06/07 01:48:06;;;;;;;;;;;;;;;17.74;77.98;100332.09;84850;1324;22845;-71
2022/06/07 01:50:12;;;;;;;;;;;;;;;17.75;78.13;100329.38;84855;1324;22778;-72
2022/06/07 01:52:22;;;;;;;;;;;;;;;17.78;78.34;100331.65;84865;1324;25259;-71
2022/06/07 01:54:28;;;;;;;;;;;;;;;17.81;78.20;100333.20;84886;1324;25419;-71
2022/06/07 01:56:35;;;;;;;;;;;;;;;17.85;78.05;100330.85;84878;1324;22563;-72
2022/06/07 01:58:41;;;;;;;;;;;;;;;17.88;78.32;100334.16;84869;1324;25288;-71
2022/06/07 02:00:47;;;;;;;;;;;;;;;17.89;78.33;100328.95;84853;1325;22515;-71
2022/06/07 02:02:53;;;;;;;;;;;;;;;17.90;78.32;100327.63;84875;1324;25398;-71
2022/06/07 02:05:02;;;;;;;;;;;;;;;17.92;78.53;100329.11;84852;1322;22552;-70
2022/06/07 02:07:08;;;;;;;;;;;;;;;17.94;78.55;100328.80;84865;1322;22581;-72
2022/06/07 02:09:14;;;;;;;;;;;;;;;17.95;78.68;100330.45;84864;1321;22569;-72
2022/06/07 02:11:21;;;;;;;;;;;;;;;17.94;78.67;100325.92;84889;1324;25291;-72
2022/06/07 02:13:27;;;;;;;;;;;;;;;17.93;78.46;100325.32;84874;1324;22568;-71
2022/06/07 02:15:33;;;;;;;;;;;;;;;17.93;78.46;100325.67;84852;1327;25420;-72
2022/06/07 02:17:39;;;;;;;;;;;;;;;17.92;78.66;100331.17;84876;1323;22570;-71
2022/06/07 02:19:45;;;;;;;;;;;;;;;17.93;78.64;100332.91;84887;1324;22567;-71
2022/06/07 02:21:51;;;;;;;;;;;;;;;17.91;78.78;100329.48;84850;1324;22552;-72
2022/06/07 02:23:57;;;;;;;;;;;;;;;17.90;78.80;100333.97;84867;1324;22731;-71
2022/06/07 02:26:05;;;;;;;;;;;;;;;17.88;78.95;100331.34;84871;1324;25404;-71
2022/06/07 02:28:12;;;;;;;;;;;;;;;17.86;79.11;100333.42;84888;1325;22594;-71
2022/06/07 02:30:18;;;;;;;;;;;;;;;17.83;79.15;100335.53;84880;1324;22574;-71
2022/06/07 02:32:26;;;;;;;;;;;;;;;17.80;79.30;100337.34;84855;1324;22661;-72
2022/06/07 02:34:32;;;;;;;;;;;;;;;17.77;79.53;100343.30;84821;1323;22573;-72
2022/06/07 02:36:38;;;;;;;;;;;;;;;17.75;79.65;100343.17;84779;1327;24309;-72
2022/06/07 02:38:45;;;;;;;;;;;;;;;17.73;79.64;100342.02;84821;1324;25956;-72
2022/06/07 02:40:51;;;;;;;;;;;;;;;17.73;79.91;100340.80;84869;1324;22591;-72
2022/06/07 02:42:57;;;;;;;;;;;;;;;17.74;80.01;100338.83;84889;1324;22941;-71
2022/06/07 02:45:04;;;;;;;;;;;;;;;17.75;80.01;100337.46;84856;1327;22570;-71
2022/06/07 02:47:10;;;;;;;;;;;;;;;17.79;80.16;100332.30;84871;1326;24200;-71
2022/06/07 02:49:17;;;;;;;;;;;;;;;17.80;80.27;100324.80;84887;1324;22661;-72
2022/06/07 02:51:25;;;;;;;;;;;;;;;17.82;80.36;100324.67;84860;1324;22567;-71
2022/06/07 02:53:31;;;;;;;;;;;;;;;17.86;80.53;100323.13;84875;1325;22561;-71
2022/06/07 02:55:37;;;;;;;;;;;;;;;17.91;80.47;100330.42;84857;1324;22709;-71
2022/06/07 02:57:43;;;;;;;;;;;;;;;17.95;80.49;100331.49;84888;1322;24076;-71
2022/06/07 02:59:49;;;;;;;;;;;;;;;18.00;80.40;100342.83;84334;1324;756232;-70
2022/06/07 03:01:55;;;;;;;;;;;;;;;18.02;80.58;100345.17;84873;1324;22553;-71
2022/06/07 03:04:03;;;;;;;;;;;;;;;18.04;80.69;100344.15;84860;1324;22569;-71
2022/06/07 03:06:09;;;;;;;;;;;;;;;18.05;80.69;100346.89;84868;1324;24254;-72
2022/06/07 03:08:18;;;;;;;;;;;;;;;18.06;80.78;100344.31;84864;1324;22628;-71
2022/06/07 03:10:24;;;;;;;;;;;;;;;18.09;80.82;100344.19;84879;1323;23897;-71
2022/06/07 03:12:31;;;;;;;;;;;;;;;18.09;80.82;100340.86;84864;1325;22583;-72
2022/06/07 03:14:37;;;;;;;;;;;;;;;18.09;80.89;100334.65;84865;1324;22575;-72
2022/06/07 03:16:44;;;;;;;;;;;;;;;18.11;81.13;100336.80;84856;1325;22674;-71
2022/06/07 03:18:52;;;;;;;;;;;;;;;18.12;81.07;100335.78;84853;1326;22578;-70
2022/06/07 03:20:58;;;;;;;;;;;;;;;18.14;80.90;100336.96;84894;1324;23910;-70
2022/06/07 03:23:07;;;;;;;;;;;;;;;18.14;80.93;100339.90;84886;1323;22593;-71
2022/06/07 03:25:13;;;;;;;;;;;;;;;18.16;80.85;100335.73;84856;1325;22562;-70
2022/06/07 03:27:19;;;;;;;;;;;;;;;18.17;81.14;100336.20;84865;1324;25406;-72
2022/06/07 03:29:25;;;;;;;;;;;;;;;18.17;81.13;100332.69;84863;1323;23916;-71
2022/06/07 03:31:31;;;;;;;;;;;;;;;18.16;81.20;100332.15;84862;1326;22588;-71
2022/06/07 03:33:37;;;;;;;;;;;;;;;18.18;81.27;100329.94;84859;1324;22571;-71
2022/06/07 03:35:44;;;;;;;;;;;;;;;18.17;81.17;100328.95;84867;1324;24212;-70
2022/06/07 03:37:50;;;;;;;;;;;;;;;18.15;81.08;100325.34;84878;1324;22585;-72
2022/06/07 03:39:56;;;;;;;;;;;;;;;18.15;81.00;100320.40;84880;1324;22587;-71
2022/06/07 03:42:02;;;;;;;;;;;;;;;18.18;81.32;100320.41;84884;1325;22632;-71
2022/06/07 03:44:09;;;;;;;;;;;;;;;18.20;81.34;100319.86;84877;1321;22654;-71
2022/06/07 03:46:18;;;;;;;;;;;;;;;18.22;81.52;100323.29;84871;1324;22561;-71
2022/06/07 03:48:24;;;;;;;;;;;;;;;18.24;81.45;100324.06;84887;1325;22612;-71
2022/06/07 03:50:30;;;;;;;;;;;;;;;18.26;81.57;100328.27;84873;1324;22567;-71
2022/06/07 03:52:36;;;;;;;;;;;;;;;18.26;81.68;100331.30;84871;1325;22585;-71
2022/06/07 03:54:42;;;;;;;;;;;;;;;18.28;81.93;100325.48;84885;1322;22549;-72
2022/06/07 03:56:48;;;;;;;;;;;;;;;18.31;82.05;100322.64;84877;1327;23028;-71
2022/06/07 03:58:55;;;;;;;;;;;;;;;18.33;81.99;100322.34;84852;1327;25473;-70
2022/06/07 04:01:03;;;;;;;;;;;;;;;18.34;81.91;100323.83;84872;1328;24205;-71
2022/06/07 04:03:10;;;;;;;;;;;;;;;18.36;81.95;100323.70;84853;1325;22615;-72
2022/06/07 04:05:18;;;;;;;;;;;;;;;18.39;82.06;100321.54;84889;1324;22874;-71
2022/06/07 04:09:50;;;;;;;;;;;;;;;18.46;82.11;100316.64;84876;1326;25409;-71
2022/06/07 04:11:56;;;;;;;;;;;;;;;18.51;82.07;100313.40;84856;1327;22585;-72
2022/06/07 04:14:02;;;;;;;;;;;;;;;18.62;82.52;100306.97;84855;1325;24210;-72
2022/06/07 04:16:09;;;;;;;;;;;;;;;19.00;83.17;100306.04;84861;1321;22576;-71
2022/06/07 04:18:15;;;;;;;;;;;;;;;19.59;84.05;100298.86;84864;1324;24273;-72
2022/06/07 04:20:22;;;;;;;;;;;;;;;20.36;83.32;100298.19;84881;1324;22584;-71
2022/06/07 04:22:28;;;;;;;;;;;;;;;21.13;81.75;100296.73;84859;1324;22800;-70
2022/06/07 04:24:34;;;;;;;;;;;;;;;21.76;79.11;100295.48;84853;1325;22635;-72
2022/06/07 04:26:40;;;;;;;;;;;;;;;22.22;76.69;100296.45;84876;1324;22567;-71
2022/06/07 04:28:46;;;;;;;;;;;;;;;22.80;75.10;100292.95;84856;1324;25407;-71
2022/06/07 04:30:52;;;;;;;;;;;;;;;23.21;72.81;100296.25;84836;1324;22579;-71
2022/06/07 04:32:58;;;;;;;;;;;;;;;23.46;71.02;100293.84;84844;1324;24385;-71
2022/06/07 04:35:07;;;;;;;;;;;;;;;23.59;69.83;100294.16;84835;1324;22598;-71
2022/06/07 04:37:12;;;;;;;;;;;;;;;23.78;69.11;100295.12;84837;1321;25443;-71
2022/06/07 04:39:18;;;;;;;;;;;;;;;23.84;68.20;100298.23;84848;1324;22753;-71
2022/06/07 04:41:25;;;;;;;;;;;;;;;23.92;67.60;100300.50;84861;1324;22581;-71
2022/06/07 04:43:33;;;;;;;;;;;;;;;24.13;67.22;100297.30;84882;1324;25421;-71
2022/06/07 04:45:39;;;;;;;;;;;;;;;24.62;66.77;100301.13;84876;1324;22603;-72
2022/06/07 04:47:49;;;;;;;;;;;;;;;25.29;66.23;100296.57;84863;1325;22570;-71
2022/06/07 04:49:58;;;;;;;;;;;;;;;26.02;64.69;100302.48;84878;1324;22568;-71
2022/06/07 04:52:04;;;;;;;;;;;;;;;26.67;62.75;100303.92;84854;1324;22564;-71
2022/06/07 04:54:12;;;;;;;;;;;;;;;27.41;60.97;100301.84;84873;1324;24080;-71
2022/06/07 04:56:19;;;;;;;;;;;;;;;28.14;59.03;100300.84;84851;1326;22697;-71
2022/06/07 04:58:25;;;;;;;;;;;;;;;28.84;57.15;100296.08;84869;1322;22661;-71
2022/06/07 05:00:31;;;;;;;;;;;;;;;28.92;54.46;100299.02;84875;1324;22560;-71
2022/06/07 05:02:40;;;;;;;;;;;;;;;28.61;53.14;100299.38;84906;1324;22571;-71
2022/06/07 05:04:46;;;;;;;;;;;;;;;28.17;53.28;100306.05;84896;1324;22557;-71
2022/06/07 05:06:52;;;;;;;;;;;;;;;27.72;53.20;100304.10;84865;1327;24219;-72
2022/06/07 05:08:59;;;;;;;;;;;;;;;27.31;53.86;100312.19;84893;1322;22558;-72
2022/06/07 05:11:10;;;;;;;;;;;;;;;26.85;54.42;100311.48;84887;1328;24454;-72
2022/06/07 05:13:16;;;;;;;;;;;;;;;26.41;55.02;100315.29;84878;1323;22576;-72
2022/06/07 05:15:22;;;;;;;;;;;;;;;26.05;55.54;100309.35;84865;1324;22602;-72
2022/06/07 05:17:28;;;;;;;;;;;;;;;25.74;56.11;100309.89;84882;1324;22980;-72
2022/06/07 05:19:34;;;;;;;;;;;;;;;25.47;56.51;100308.31;84887;1324;22597;-71
2022/06/07 05:21:40;;;;;;;;;;;;;;;25.21;56.88;100307.39;84878;1323;22584;-72
2022/06/07 05:23:46;;;;;;;;;;;;;;;25.01;57.46;100308.52;84890;1324;22705;-71
2022/06/07 05:25:57;;;;;;;;;;;;;;;24.76;57.87;100311.55;84891;1324;24234;-71
2022/06/07 05:28:03;;;;;;;;;;;;;;;24.50;58.73;100314.60;84882;1324;22561;-71
2022/06/07 05:30:11;;;;;;;;;;;;;;;24.28;59.06;100312.21;84812;1327;22558;-71
2022/06/07 05:32:18;;;;;;;;;;;;;;;24.07;59.42;100311.39;84885;1324;22644;-72
2022/06/07 05:34:24;;;;;;;;;;;;;;;23.89;59.92;100312.24;84885;1324;22843;-71
2022/06/07 05:36:30;;;;;;;;;;;;;;;23.76;60.13;100312.61;84890;1324;22973;-72
2022/06/07 05:38:36;;;;;;;;;;;;;;;23.65;60.16;100307.52;84869;1322;22571;-71
2022/06/07 05:40:42;;;;;;;;;;;;;;;23.63;60.54;100310.58;84869;1327;22545;-72
2022/06/07 05:42:48;;;;;;;;;;;;;;;23.76;61.67;100313.80;84863;1325;24355;-72
2022/06/07 05:44:54;;;;;;;;;;;;;;;24.34;62.22;100314.29;84885;1325;22593;-72
2022/06/07 05:47:02;;;;;;;;;;;;;;;25.19;62.54;100310.30;84865;1326;22577;-70
2022/06/07 05:49:09;;;;;;;;;;;;;;;26.09;60.47;100312.86;84886;1325;22577;-71
2022/06/07 05:51:15;;;;;;;;;;;;;;;27.26;58.43;100309.98;84884;1325;22585;-72
2022/06/07 05:53:21;;;;;;;;;;;;;;;28.21;55.28;100308.09;84898;1325;24359;-72
2022/06/07 05:55:27;;;;;;;;;;;;;;;28.66;52.93;100307.77;84814;1328;25427;-72
2022/06/07 05:57:34;;;;;;;;;;;;;;;29.08;50.91;100305.70;84853;1324;24258;-71
2022/06/07 05:59:40;;;;;;;;;;;;;;;29.57;49.33;100300.39;84862;1325;22621;-72
2022/06/07 06:01:49;;;;;;;;;;;;;;;29.92;47.79;100305.65;84879;1324;22559;-72
2022/06/07 06:03:56;;;;;;;;;;;;;;;29.74;46.86;100306.59;84883;1325;22618;-71
2022/06/07 06:06:02;;;;;;;;;;;;;;;29.89;47.03;100307.89;84869;1324;24241;-74
2022/06/07 06:10:32;;;;;;;;;;;;;;;30.46;45.82;100301.98;84866;1327;22604;-73
2022/06/07 06:12:38;;;;;;;;;;;;;;;30.97;45.02;100304.63;84879;1326;22568;-73
2022/06/07 06:14:44;;;;;;;;;;;;;;;31.46;43.57;100301.52;84879;1324;24226;-72
2022/06/07 06:16:52;;;;;;;;;;;;;;;31.92;42.69;100300.48;84862;1325;22627;-73
2022/06/07 06:18:59;;;;;;;;;;;;;;;32.37;41.67;100297.03;84858;1324;22601;-72
2022/06/07 06:21:06;;;;;;;;;;;;;;;32.84;40.77;100297.82;84848;1324;22637;-73
2022/06/07 06:23:12;;;;;;;;;;;;;;;33.36;39.51;100298.33;84857;1326;25396;-73
2022/06/07 06:25:18;;;;;;;;;;;;;;;33.73;38.71;100292.59;84873;1321;22808;-73
2022/06/07 06:27:25;;;;;;;;;;;;;;;33.88;37.67;100293.70;84867;1324;22649;-73
2022/06/07 06:29:31;;;;;;;;;;;;;;;33.96;37.62;100288.14;84874;1324;22555;-73
2022/06/07 06:31:40;;;;;;;;;;;;;;;34.14;37.58;100293.48;84892;1324;22577;-73
2022/06/07 06:33:48;;;;;;;;;;;;;;;34.36;37.21;100292.50;84894;1324;22585;-73
2022/06/07 06:35:55;;;;;;;;;;;;;;;34.65;36.44;100291.42;84892;1322;24554;-73
2022/06/07 06:38:01;;;;;;;;;;;;;;;35.09;35.95;100294.81;84897;1324;24206;-73
2022/06/07 06:40:10;;;;;;;;;;;;;;;35.50;35.04;100292.86;84875;1326;23064;-73
2022/06/07 06:42:16;;;;;;;;;;;;;;;35.72;33.13;100293.92;84871;1324;22735;-71
2022/06/07 06:44:22;;;;;;;;;;;;;;;35.87;32.61;100288.72;84880;1324;22763;-73
2022/06/07 06:46:29;;;;;;;;;;;;;;;35.96;32.45;100291.21;84887;1328;22585;-72
2022/06/07 06:48:35;;;;;;;;;;;;;;;35.75;32.72;100292.88;84879;1322;22584;-73
2022/06/07 06:50:41;;;;;;;;;;;;;;;35.27;32.70;100291.59;84870;1321;22639;-73
2022/06/07 06:52:47;;;;;;;;;;;;;;;34.50;33.28;100291.04;84840;1320;22595;-73
2022/06/07 06:54:56;;;;;;;;;;;;;;;33.66;34.81;100291.09;84864;1324;25952;-73
2022/06/07 06:57:05;;;;;;;;;;;;;;;33.05;36.19;100289.16;84884;1326;25261;-73
2022/06/07 06:59:12;;;;;;;;;;;;;;;32.70;36.57;100286.45;84884;1324;24270;-73
2022/06/07 07:01:21;;;;;;;;;;;;;;;32.45;36.30;100285.66;84881;1323;22557;-73
2022/06/07 07:03:27;;;;;;;;;;;;;;;31.85;37.04;100285.66;84841;1325;24198;-73
2022/06/07 07:05:35;;;;;;;;;;;;;;;31.57;38.27;100283.48;84843;1321;22562;-73
2022/06/07 07:07:41;;;;;;;;;;;;;;;31.53;39.22;100283.02;84864;1324;22869;-73
2022/06/07 07:09:49;;;;;;;;;;;;;;;31.93;39.38;100279.18;84848;1328;22566;-73
2022/06/07 07:11:56;;;;;;;;;;;;;;;32.25;38.65;100276.59;84862;1324;22588;-73
2022/06/07 07:14:02;;;;;;;;;;;;;;;32.97;37.64;100277.42;84864;1325;22782;-73
2022/06/07 07:16:10;;;;;;;;;;;;;;;33.48;36.62;100277.64;84855;1325;23977;-73
2022/06/07 07:18:16;;;;;;;;;;;;;;;33.97;37.00;100279.52;84843;1324;22577;-73
2022/06/07 07:20:22;;;;;;;;;;;;;;;34.67;35.73;100275.77;84845;1326;22567;-72
2022/06/07 07:22:28;;;;;;;;;;;;;;;35.38;34.45;100269.48;84872;1326;22968;-72
2022/06/07 07:24:34;;;;;;;;;;;;;;;35.80;33.52;100268.80;84843;1324;25355;-73
2022/06/07 07:26:43;;;;;;;;;;;;;;;36.21;32.77;100269.42;84843;1324;22652;-73
2022/06/07 07:28:50;;;;;;;;;;;;;;;36.72;32.21;100269.65;84844;1328;22788;-73
2022/06/07 07:31:00;;;;;;;;;;;;;;;37.35;30.93;100267.80;84852;1322;22584;-73
2022/06/07 07:33:06;;;;;;;;;;;;;;;37.90;30.04;100270.42;84858;1325;22599;-76
2022/06/07 07:35:13;;;;;;;;;;;;;;;38.39;29.17;100274.14;84832;1326;22560;-75
2022/06/07 07:37:19;;;;;;;;;;;;;;;38.61;27.91;100270.36;84855;1327;22721;-77
2022/06/07 07:39:26;;;;;;;;;;;;;;;38.64;28.11;100268.71;84873;1327;22574;-77
2022/06/07 07:41:34;;;;;;;;;;;;;;;38.62;28.20;100268.46;84877;1324;22599;-76
2022/06/07 07:43:44;;;;;;;;;;;;;;;38.46;28.89;100267.35;84861;1324;22744;-77
2022/06/07 07:45:55;;;;;;;;;;;;;;;38.65;28.41;100268.84;84835;1324;22552;-76
2022/06/07 07:48:04;;;;;;;;;;;;;;;38.89;28.61;100267.39;84845;1324;22623;-76
2022/06/07 07:50:13;;;;;;;;;;;;;;;39.17;27.08;100270.33;84861;1324;22580;-76
2022/06/07 07:52:19;;;;;;;;;;;;;;;39.18;26.98;100265.42;84863;1324;22586;-76
2022/06/07 07:54:26;;;;;;;;;;;;;;;38.86;27.10;100263.94;84875;1324;22611;-77
2022/06/07 07:56:33;;;;;;;;;;;;;;;38.87;27.54;100263.36;84863;1322;22806;-76
2022/06/07 07:58:41;;;;;;;;;;;;;;;39.14;27.37;100265.73;84860;1325;25232;-76
2022/06/07 08:00:48;;;;;;;;;;;;;;;39.50;26.76;100263.30;84887;1324;25470;-78
2022/06/07 08:02:57;;;;;;;;;;;;;;;39.70;26.22;100264.66;84853;1324;22801;-77
2022/06/07 08:05:03;;;;;;;;;;;;;;;39.73;26.24;100262.07;84755;1326;22577;-72
2022/06/07 08:07:09;;;;;;;;;;;;;;;39.31;25.88;100261.48;84860;1324;24378;-73
2022/06/07 08:09:15;;;;;;;;;;;;;;;38.31;26.71;100256.86;84852;1324;22856;-72
2022/06/07 08:11:25;;;;;;;;;;;;;;;37.30;27.52;100257.21;84862;1325;22550;-73
2022/06/07 08:13:31;;;;;;;;;;;;;;;36.43;28.34;100260.09;84882;1324;25262;-74
2022/06/07 08:15:37;;;;;;;;;;;;;;;35.61;29.22;100257.96;84872;1328;24277;-74
2022/06/07 08:17:43;;;;;;;;;;;;;;;34.97;30.57;100259.15;84864;1327;22565;-74
2022/06/07 08:19:50;;;;;;;;;;;;;;;34.63;31.38;100255.90;84813;1326;23936;-74
2022/06/07 08:21:56;;;;;;;;;;;;;;;34.65;32.02;100257.98;84819;1325;24195;-74
2022/06/07 08:24:02;;;;;;;;;;;;;;;35.44;32.39;100257.85;84864;1328;22578;-74
2022/06/07 08:26:08;;;;;;;;;;;;;;;36.37;30.60;100259.25;84882;1324;22567;-74
2022/06/07 08:28:14;;;;;;;;;;;;;;;36.91;29.17;100258.67;84865;1327;22554;-74
2022/06/07 08:30:23;;;;;;;;;;;;;;;36.92;28.44;100257.56;84875;1327;22568;-74
2022/06/07 08:32:29;;;;;;;;;;;;;;;36.29;28.41;100255.78;84880;1326;22590;-73
2022/06/07 08:39:26;;;;;;;;;;;;;;;34.69;30.71;100264.90;84855;1321;22847;-73
2022/06/07 08:41:33;;;;;;;;;;;;;;;34.31;30.80;100264.42;84836;1325;22595;-73
2022/06/07 08:43:42;;;;;;;;;;;;;;;33.87;31.23;100260.25;84870;1326;24335;-71
2022/06/07 08:45:48;;;;;;;;;;;;;;;33.41;32.09;100256.27;84853;1327;24442;-72
2022/06/07 08:47:55;;;;;;;;;;;;;;;33.03;32.66;100259.97;84860;1325;22607;-72
2022/06/07 08:50:03;;;;;;;;;;;;;;;32.75;33.73;100259.65;84846;1324;25266;-72
2022/06/07 08:52:15;;;;;;;;;;;;;;;32.52;34.27;100259.10;84890;1324;23932;-73
2022/06/07 08:54:24;;;;;;;;;;;;;;;32.23;34.52;100253.92;84846;1325;22570;-73
2022/06/07 08:56:31;;;;;;;;;;;;;;;31.94;34.93;100255.88;84864;1324;24287;-73
2022/06/07 08:58:39;;;;;;;;;;;;;;;31.93;36.05;100254.38;84861;1324;22555;-73
2022/06/07 09:00:57;;;;;;;;;;;;;;;31.84;36.11;100257.73;84878;1325;22581;-74
2022/06/07 09:03:37;;;;;;;;;;;;;;;31.76;35.69;100254.16;84865;1324;22566;-75
2022/06/07 09:05:48;;;;;;;;;;;;;;;31.55;36.08;100254.45;84545;1335;25282;-76
2022/06/07 09:07:55;;;;;;;;;;;;;;;31.31;35.93;100257.34;84694;1326;22587;-76
2022/06/07 09:12:29;;;;;;;;;;;;;;;30.64;37.08;100260.38;84860;1324;22600;-73
2022/06/07 09:14:42;;;;;;;;;;;;;;;30.27;38.08;100262.02;84884;1324;25454;-73
2022/06/07 09:16:48;;;;;;;;;;;;;;;29.94;39.38;100250.73;84851;1328;22592;-73
2022/06/07 09:18:54;;;;;;;;;;;;;;;29.71;39.79;100247.84;84890;1325;22568;-73
2022/06/07 09:21:04;;;;;;;;;;;;;;;29.50;40.42;100249.95;84849;1325;22556;-73
2022/06/07 09:23:16;;;;;;;;;;;;;;;29.29;40.63;100247.04;84890;1325;22573;-73
2022/06/07 09:25:25;;;;;;;;;;;;;;;29.23;41.29;100245.48;84878;1324;22700;-73
2022/06/07 09:27:32;;;;;;;;;;;;;;;29.16;41.81;100247.53;84867;1324;22568;-73
2022/06/07 09:29:41;;;;;;;;;;;;;;;29.49;41.89;100243.42;84868;1324;22563;-73
2022/06/07 09:31:49;;;;;;;;;;;;;;;30.05;40.89;100241.75;84867;1324;22581;-73
2022/06/07 09:33:59;;;;;;;;;;;;;;;30.56;39.45;100244.29;84852;1327;22557;-73
2022/06/07 09:36:08;;;;;;;;;;;;;;;30.92;38.45;100239.94;84888;1324;22585;-73
2022/06/07 09:38:16;;;;;;;;;;;;;;;31.07;38.23;100240.03;84761;1327;24377;-73
2022/06/07 09:40:26;;;;;;;;;;;;;;;31.02;38.32;100246.35;84868;1325;22595;-73
2022/06/07 09:42:32;;;;;;;;;;;;;;;30.75;37.59;100243.67;84877;1325;22802;-73
2022/06/07 09:44:40;;;;;;;;;;;;;;;30.46;38.01;100245.63;84885;1322;23910;-72
2022/06/07 09:46:51;;;;;;;;;;;;;;;30.21;39.07;100240.52;84820;1329;25232;-72
2022/06/07 09:48:57;;;;;;;;;;;;;;;30.03;40.10;100241.09;84878;1325;25384;-72
2022/06/07 09:51:08;;;;;;;;;;;;;;;30.25;40.44;100234.37;84867;1325;24366;-72
2022/06/07 09:53:18;;;;;;;;;;;;;;;30.73;39.53;100231.27;84869;1324;22575;-71
2022/06/07 09:55:29;;;;;;;;;;;;;;;31.17;38.98;100230.80;84831;1329;22567;-70
2022/06/07 09:57:39;;;;;;;;;;;;;;;31.50;37.84;100231.86;84869;1327;22590;-71
2022/06/07 09:59:57;;;;;;;;;;;;;;;31.80;37.47;100227.34;84847;1328;25934;-71
2022/06/07 10:02:13;;;;;;;;;;;;;;;31.95;36.47;100220.20;84872;1324;25398;-71
2022/06/07 10:04:25;;;;;;;;;;;;;;;32.20;36.69;100220.13;84869;1322;22568;-71
2022/06/07 10:06:32;;;;;;;;;;;;;;;32.56;36.31;100218.85;84857;1328;22593;-72
2022/06/07 10:08:44;;;;;;;;;;;;;;;32.85;36.35;100216.73;84857;1324;25413;-71
2022/06/07 10:10:53;;;;;;;;;;;;;;;33.12;34.33;100215.55;84876;1325;22608;-71
2022/06/07 10:13:06;;;;;;;;;;;;;;;33.13;34.39;100217.09;84891;1324;22976;-71
2022/06/07 10:15:21;;;;;;;;;;;;;;;33.26;34.45;100213.17;84856;1324;22568;-73
2022/06/07 10:17:50;;;;;;;;;;;;;;;33.36;34.04;100214.23;84868;1324;22585;-73
2022/06/07 10:19:59;;;;;;;;;;;;;;;33.37;34.51;100215.56;84878;1328;22843;-73
2022/06/07 10:22:14;;;;;;;;;;;;;;;33.22;34.72;100219.50;84865;1325;22687;-73
2022/06/07 10:24:26;;;;;;;;;;;;;;;32.87;34.94;100218.45;84907;1326;22574;-73
2022/06/07 10:26:39;;;;;;;;;;;;;;;32.42;35.30;100216.52;84871;1322;22571;-73
2022/06/07 10:28:49;;;;;;;;;;;;;;;32.02;35.63;100211.02;84855;1328;22573;-73
2022/06/07 10:30:58;;;;;;;;;;;;;;;31.63;36.42;100214.63;84860;1325;22566;-73
2022/06/07 10:33:29;;;;;;;;;;;;;;;31.23;36.64;100213.30;84864;1328;24342;-72
2022/06/07 10:35:42;;;;;;;;;;;;;;;30.79;37.15;100214.04;84864;1324;22539;-72
2022/06/07 10:37:57;;;;;;;;;;;;;;;30.45;37.35;100213.63;84887;1324;22580;-72
2022/06/07 10:40:11;;;;;;;;;;;;;;;30.14;37.97;100220.30;84875;1324;22571;-72
2022/06/07 10:42:24;;;;;;;;;;;;;;;29.81;38.43;100215.87;84863;1327;22558;-73
2022/06/07 10:44:34;;;;;;;;;;;;;;;29.51;38.88;100217.13;84860;1328;22633;-73
2022/06/07 10:46:42;;;;;;;;;;;;;;;29.28;39.73;100214.84;84883;1324;23894;-72
2022/06/07 10:48:54;;;;;;;;;;;;;;;29.09;40.28;100216.08;84864;1325;22588;-72
2022/06/07 10:51:03;;;;;;;;;;;;;;;28.88;40.44;100217.67;84855;1324;22633;-72
2022/06/07 10:53:12;;;;;;;;;;;;;;;28.67;40.13;100215.73;84806;1322;22569;-73
2022/06/07 10:55:26;;;;;;;;;;;;;;;28.55;40.61;100213.40;84839;1325;25318;-73
2022/06/07 10:57:35;;;;;;;;;;;;;;;28.43;40.62;100209.40;84866;1324;22565;-72
2022/06/07 10:59:41;;;;;;;;;;;;;;;28.36;40.68;100209.86;84628;1328;357214;-72
2022/06/07 11:01:49;;;;;;;;;;;;;;;28.29;41.08;100210.80;84871;1324;23952;-72
2022/06/07 11:04:03;;;;;;;;;;;;;;;28.23;41.42;100211.55;84849;1327;24357;-72
2022/06/07 11:11:03;;;;;;;;;;;;;;;28.17;42.12;100205.76;84819;1326;24372;-72
2022/06/07 11:13:18;;;;;;;;;;;;;;;28.17;42.45;100208.81;84872;1326;22619;-72
2022/06/07 11:15:31;;;;;;;;;;;;;;;28.16;42.57;100204.29;84869;1327;22671;-71
2022/06/07 11:17:44;;;;;;;;;;;;;;;28.18;43.02;100203.75;84868;1324;22581;-71
2022/06/07 11:19:51;;;;;;;;;;;;;;;28.17;43.05;100196.94;84890;1325;22793;-72
2022/06/07 11:21:58;;;;;;;;;;;;;;;28.34;42.66;100192.60;84839;1326;22782;-72